sensor_id;sensor_type;location;lat;lon;timestamp;temperature;humidity
5027;DHT22;2532;52.480;13.354;2023-06-14T00:01:21;17.40;67.50
5027;DHT22;2532;52.480;13.354;2023-06-14T00:03:48;17.40;68.00
5027;DHT22;2532;52.480;13.354;2023-06-14T00:06:15;17.30;68.30
5027;DHT22;2532;52.480;13.354;2023-06-14T00:08:43;17.40;68.80
5027;DHT22;2532;52.480;13.354;2023-06-14T00:11:10;17.30;68.90
5027;DHT22;2532;52.480;13.354;2023-06-14T00:13:37;17.30;69.20
5027;DHT22;2532;52.480;13.354;2023-06-14T00:16:04;17.30;69.40
5027;DHT22;2532;52.480;13.354;2023-06-14T00:18:33;17.30;70.00
5027;DHT22;2532;52.480;13.354;2023-06-14T00:21:00;17.20;70.50
5027;DHT22;2532;52.480;13.354;2023-06-14T00:23:27;17.10;71.10
5027;DHT22;2532;52.480;13.354;2023-06-14T00:25:55;17.10;71.80
5027;DHT22;2532;52.480;13.354;2023-06-14T00:28:22;17.00;72.30
5027;DHT22;2532;52.480;13.354;2023-06-14T00:30:49;17.00;73.70
5027;DHT22;2532;52.480;13.354;2023-06-14T00:33:16;17.00;73.70
5027;DHT22;2532;52.480;13.354;2023-06-14T00:35:47;17.00;74.20
5027;DHT22;2532;52.480;13.354;2023-06-14T00:38:14;16.90;74.90
5027;DHT22;2532;52.480;13.354;2023-06-14T00:40:42;16.90;75.60
5027;DHT22;2532;52.480;13.354;2023-06-14T00:43:09;16.90;76.30
5027;DHT22;2532;52.480;13.354;2023-06-14T00:45:36;16.80;77.00
5027;DHT22;2532;52.480;13.354;2023-06-14T00:48:04;16.80;77.80
5027;DHT22;2532;52.480;13.354;2023-06-14T00:50:33;16.70;78.40
5027;DHT22;2532;52.480;13.354;2023-06-14T00:53:03;16.70;79.20
5027;DHT22;2532;52.480;13.354;2023-06-14T00:55:31;16.70;80.20
5027;DHT22;2532;52.480;13.354;2023-06-14T00:57:59;16.70;81.60
5027;DHT22;2532;52.480;13.354;2023-06-14T01:00:26;16.60;81.60
5027;DHT22;2532;52.480;13.354;2023-06-14T01:02:54;16.70;82.40
5027;DHT22;2532;52.480;13.354;2023-06-14T01:05:22;16.60;83.10
5027;DHT22;2532;52.480;13.354;2023-06-14T01:07:59;16.60;84.00
5027;DHT22;2532;52.480;13.354;2023-06-14T01:10:37;16.60;84.70
5027;DHT22;2532;52.480;13.354;2023-06-14T01:13:12;16.60;85.30
5027;DHT22;2532;52.480;13.354;2023-06-14T01:15:43;16.60;85.90
5027;DHT22;2532;52.480;13.354;2023-06-14T01:18:10;16.60;86.40
5027;DHT22;2532;52.480;13.354;2023-06-14T01:20:43;16.60;86.90
5027;DHT22;2532;52.480;13.354;2023-06-14T01:23:16;16.60;87.20
5027;DHT22;2532;52.480;13.354;2023-06-14T01:25:43;16.60;87.70
5027;DHT22;2532;52.480;13.354;2023-06-14T01:28:11;16.70;88.10
5027;DHT22;2532;52.480;13.354;2023-06-14T01:30:41;16.70;88.30
5027;DHT22;2532;52.480;13.354;2023-06-14T01:33:12;16.70;88.40
5027;DHT22;2532;52.480;13.354;2023-06-14T01:35:43;16.70;88.70
5027;DHT22;2532;52.480;13.354;2023-06-14T01:38:12;16.70;88.90
5027;DHT22;2532;52.480;13.354;2023-06-14T01:40:42;16.70;89.20
5027;DHT22;2532;52.480;13.354;2023-06-14T01:43:10;16.70;89.50
5027;DHT22;2532;52.480;13.354;2023-06-14T01:45:39;16.70;89.60
5027;DHT22;2532;52.480;13.354;2023-06-14T01:48:07;16.70;89.90
5027;DHT22;2532;52.480;13.354;2023-06-14T01:50:34;16.70;89.90
5027;DHT22;2532;52.480;13.354;2023-06-14T01:53:07;16.70;90.00
5027;DHT22;2532;52.480;13.354;2023-06-14T01:55:35;16.70;90.00
5027;DHT22;2532;52.480;13.354;2023-06-14T01:58:05;16.70;90.00
5027;DHT22;2532;52.480;13.354;2023-06-14T02:00:33;16.70;90.10
5027;DHT22;2532;52.480;13.354;2023-06-14T02:03:00;16.70;90.20
5027;DHT22;2532;52.480;13.354;2023-06-14T02:05:27;16.70;90.20
5027;DHT22;2532;52.480;13.354;2023-06-14T02:07:55;16.70;90.20
5027;DHT22;2532;52.480;13.354;2023-06-14T02:10:23;16.70;90.30
5027;DHT22;2532;52.480;13.354;2023-06-14T02:12:50;16.60;90.40
5027;DHT22;2532;52.480;13.354;2023-06-14T02:15:19;16.60;90.50
5027;DHT22;2532;52.480;13.354;2023-06-14T02:17:48;16.60;90.60
5027;DHT22;2532;52.480;13.354;2023-06-14T02:20:16;16.50;90.70
5027;DHT22;2532;52.480;13.354;2023-06-14T02:22:45;16.50;90.80
5027;DHT22;2532;52.480;13.354;2023-06-14T02:25:12;16.50;90.80
5027;DHT22;2532;52.480;13.354;2023-06-14T02:27:39;16.50;91.00
5027;DHT22;2532;52.480;13.354;2023-06-14T02:30:10;16.50;91.10
5027;DHT22;2532;52.480;13.354;2023-06-14T02:32:39;16.50;91.30
5027;DHT22;2532;52.480;13.354;2023-06-14T02:35:07;16.40;91.40
5027;DHT22;2532;52.480;13.354;2023-06-14T02:37:34;16.40;91.60
5027;DHT22;2532;52.480;13.354;2023-06-14T02:40:02;16.40;91.70
5027;DHT22;2532;52.480;13.354;2023-06-14T02:42:30;16.30;91.80
5027;DHT22;2532;52.480;13.354;2023-06-14T02:44:57;16.30;91.90
5027;DHT22;2532;52.480;13.354;2023-06-14T02:47:25;16.30;92.00
5027;DHT22;2532;52.480;13.354;2023-06-14T02:49:53;16.30;92.10
5027;DHT22;2532;52.480;13.354;2023-06-14T02:52:20;16.30;92.20
5027;DHT22;2532;52.480;13.354;2023-06-14T02:54:47;16.30;92.20
5027;DHT22;2532;52.480;13.354;2023-06-14T02:57:15;16.30;92.30
5027;DHT22;2532;52.480;13.354;2023-06-14T02:59:42;16.30;92.30
5027;DHT22;2532;52.480;13.354;2023-06-14T03:02:09;16.30;92.30
5027;DHT22;2532;52.480;13.354;2023-06-14T03:04:36;16.30;92.40
5027;DHT22;2532;52.480;13.354;2023-06-14T03:07:05;16.30;92.40
5027;DHT22;2532;52.480;13.354;2023-06-14T03:09:35;16.30;92.50
5027;DHT22;2532;52.480;13.354;2023-06-14T03:12:03;16.30;92.50
5027;DHT22;2532;52.480;13.354;2023-06-14T03:14:30;16.30;92.40
5027;DHT22;2532;52.480;13.354;2023-06-14T03:16:57;16.30;92.50
5027;DHT22;2532;52.480;13.354;2023-06-14T03:19:26;16.30;92.50
5027;DHT22;2532;52.480;13.354;2023-06-14T03:21:53;16.30;92.50
5027;DHT22;2532;52.480;13.354;2023-06-14T03:24:24;16.30;92.60
5027;DHT22;2532;52.480;13.354;2023-06-14T03:26:53;16.30;92.60
5027;DHT22;2532;52.480;13.354;2023-06-14T03:29:20;16.30;92.50
5027;DHT22;2532;52.480;13.354;2023-06-14T03:31:58;16.40;92.60
5027;DHT22;2532;52.480;13.354;2023-06-14T03:34:26;16.40;92.60
5027;DHT22;2532;52.480;13.354;2023-06-14T03:36:54;16.40;92.60
5027;DHT22;2532;52.480;13.354;2023-06-14T03:39:21;16.40;92.60
5027;DHT22;2532;52.480;13.354;2023-06-14T03:41:49;16.40;92.60
5027;DHT22;2532;52.480;13.354;2023-06-14T03:44:17;16.40;92.60
5027;DHT22;2532;52.480;13.354;2023-06-14T03:46:44;16.40;92.60
5027;DHT22;2532;52.480;13.354;2023-06-14T03:49:11;16.50;92.70
5027;DHT22;2532;52.480;13.354;2023-06-14T03:51:39;16.50;92.50
5027;DHT22;2532;52.480;13.354;2023-06-14T03:54:06;16.50;92.50
5027;DHT22;2532;52.480;13.354;2023-06-14T03:56:33;16.60;92.50
5027;DHT22;2532;52.480;13.354;2023-06-14T03:59:04;16.60;92.50
5027;DHT22;2532;52.480;13.354;2023-06-14T04:01:31;16.60;92.50
5027;DHT22;2532;52.480;13.354;2023-06-14T04:03:59;16.60;92.50
5027;DHT22;2532;52.480;13.354;2023-06-14T04:06:26;16.60;92.50
5027;DHT22;2532;52.480;13.354;2023-06-14T04:08:58;16.60;92.50
5027;DHT22;2532;52.480;13.354;2023-06-14T04:11:28;16.60;92.50
5027;DHT22;2532;52.480;13.354;2023-06-14T04:13:55;16.70;92.50
5027;DHT22;2532;52.480;13.354;2023-06-14T04:16:24;16.70;92.50
5027;DHT22;2532;52.480;13.354;2023-06-14T04:18:51;16.60;92.50
5027;DHT22;2532;52.480;13.354;2023-06-14T04:21:19;16.70;92.50
5027;DHT22;2532;52.480;13.354;2023-06-14T04:23:45;16.70;92.50
5027;DHT22;2532;52.480;13.354;2023-06-14T04:26:12;16.70;92.40
5027;DHT22;2532;52.480;13.354;2023-06-14T04:28:40;16.70;92.40
5027;DHT22;2532;52.480;13.354;2023-06-14T04:31:07;16.80;92.40
5027;DHT22;2532;52.480;13.354;2023-06-14T04:33:36;16.80;92.30
5027;DHT22;2532;52.480;13.354;2023-06-14T04:36:09;16.80;92.20
5027;DHT22;2532;52.480;13.354;2023-06-14T04:38:37;16.80;92.10
5027;DHT22;2532;52.480;13.354;2023-06-14T04:41:04;16.90;92.10
5027;DHT22;2532;52.480;13.354;2023-06-14T04:43:31;16.90;92.00
5027;DHT22;2532;52.480;13.354;2023-06-14T04:46:04;16.90;92.00
5027;DHT22;2532;52.480;13.354;2023-06-14T04:48:37;16.90;91.90
5027;DHT22;2532;52.480;13.354;2023-06-14T04:51:05;17.00;91.90
5027;DHT22;2532;52.480;13.354;2023-06-14T04:53:32;17.10;91.80
5027;DHT22;2532;52.480;13.354;2023-06-14T04:55:59;17.10;91.60
5027;DHT22;2532;52.480;13.354;2023-06-14T04:58:27;17.20;91.50
5027;DHT22;2532;52.480;13.354;2023-06-14T05:00:54;17.30;91.60
5027;DHT22;2532;52.480;13.354;2023-06-14T05:03:21;17.30;91.40
5027;DHT22;2532;52.480;13.354;2023-06-14T05:05:50;17.40;91.30
5027;DHT22;2532;52.480;13.354;2023-06-14T05:08:19;17.40;91.20
5027;DHT22;2532;52.480;13.354;2023-06-14T05:10:49;17.50;91.10
5027;DHT22;2532;52.480;13.354;2023-06-14T05:13:16;17.50;91.00
5027;DHT22;2532;52.480;13.354;2023-06-14T05:15:43;17.50;91.00
5027;DHT22;2532;52.480;13.354;2023-06-14T05:18:10;17.50;90.80
5027;DHT22;2532;52.480;13.354;2023-06-14T05:20:38;17.50;90.70
5027;DHT22;2532;52.480;13.354;2023-06-14T05:23:11;17.50;90.80
5027;DHT22;2532;52.480;13.354;2023-06-14T05:25:41;17.60;90.70
5027;DHT22;2532;52.480;13.354;2023-06-14T05:28:12;17.60;90.50
5027;DHT22;2532;52.480;13.354;2023-06-14T05:30:39;17.60;90.40
5027;DHT22;2532;52.480;13.354;2023-06-14T05:33:08;17.60;90.40
5027;DHT22;2532;52.480;13.354;2023-06-14T05:35:35;17.60;90.40
5027;DHT22;2532;52.480;13.354;2023-06-14T05:38:03;17.60;90.40
5027;DHT22;2532;52.480;13.354;2023-06-14T05:40:32;17.60;90.70
5027;DHT22;2532;52.480;13.354;2023-06-14T05:42:59;17.70;90.40
5027;DHT22;2532;52.480;13.354;2023-06-14T05:45:26;17.70;90.40
5027;DHT22;2532;52.480;13.354;2023-06-14T05:47:53;17.80;90.40
5027;DHT22;2532;52.480;13.354;2023-06-14T05:50:20;17.70;90.30
5027;DHT22;2532;52.480;13.354;2023-06-14T05:52:47;17.70;90.30
5027;DHT22;2532;52.480;13.354;2023-06-14T05:55:16;17.80;90.40
5027;DHT22;2532;52.480;13.354;2023-06-14T05:57:44;17.80;90.50
5027;DHT22;2532;52.480;13.354;2023-06-14T06:00:12;17.90;90.50
5027;DHT22;2532;52.480;13.354;2023-06-14T06:05:58;17.90;90.50
5027;DHT22;2532;52.480;13.354;2023-06-14T06:08:26;17.90;90.50
5027;DHT22;2532;52.480;13.354;2023-06-14T06:10:53;18.00;90.60
5027;DHT22;2532;52.480;13.354;2023-06-14T06:13:21;18.00;90.60
5027;DHT22;2532;52.480;13.354;2023-06-14T06:15:48;18.00;90.50
5027;DHT22;2532;52.480;13.354;2023-06-14T06:18:15;18.00;90.40
5027;DHT22;2532;52.480;13.354;2023-06-14T06:20:42;17.90;90.50
5027;DHT22;2532;52.480;13.354;2023-06-14T06:23:09;17.80;90.60
5027;DHT22;2532;52.480;13.354;2023-06-14T06:25:36;17.90;90.70
5027;DHT22;2532;52.480;13.354;2023-06-14T06:28:03;17.80;90.80
5027;DHT22;2532;52.480;13.354;2023-06-14T06:30:32;17.80;90.80
5027;DHT22;2532;52.480;13.354;2023-06-14T06:32:59;17.80;90.80
5027;DHT22;2532;52.480;13.354;2023-06-14T06:35:26;17.80;90.90
5027;DHT22;2532;52.480;13.354;2023-06-14T06:37:52;17.80;91.00
5027;DHT22;2532;52.480;13.354;2023-06-14T06:40:19;17.90;91.00
5027;DHT22;2532;52.480;13.354;2023-06-14T06:42:47;17.90;91.00
5027;DHT22;2532;52.480;13.354;2023-06-14T06:45:15;18.00;90.90
5027;DHT22;2532;52.480;13.354;2023-06-14T06:47:43;17.90;90.90
5027;DHT22;2532;52.480;13.354;2023-06-14T06:50:10;17.90;91.00
5027;DHT22;2532;52.480;13.354;2023-06-14T06:52:37;17.90;91.00
5027;DHT22;2532;52.480;13.354;2023-06-14T06:55:05;17.90;91.10
5027;DHT22;2532;52.480;13.354;2023-06-14T06:57:32;17.80;91.10
5027;DHT22;2532;52.480;13.354;2023-06-14T06:59:59;17.90;91.10
5027;DHT22;2532;52.480;13.354;2023-06-14T07:02:26;18.00;91.40
5027;DHT22;2532;52.480;13.354;2023-06-14T07:04:54;18.00;91.00
5027;DHT22;2532;52.480;13.354;2023-06-14T07:07:21;18.10;90.90
5027;DHT22;2532;52.480;13.354;2023-06-14T07:09:48;18.10;90.80
5027;DHT22;2532;52.480;13.354;2023-06-14T07:12:44;18.20;90.90
5027;DHT22;2532;52.480;13.354;2023-06-14T07:15:12;18.20;90.90
5027;DHT22;2532;52.480;13.354;2023-06-14T07:17:38;18.30;90.80
5027;DHT22;2532;52.480;13.354;2023-06-14T07:20:09;18.30;90.60
5027;DHT22;2532;52.480;13.354;2023-06-14T07:22:39;18.40;90.60
5027;DHT22;2532;52.480;13.354;2023-06-14T07:25:08;18.40;90.30
5027;DHT22;2532;52.480;13.354;2023-06-14T07:27:35;18.50;90.20
5027;DHT22;2532;52.480;13.354;2023-06-14T07:30:02;18.60;90.10
5027;DHT22;2532;52.480;13.354;2023-06-14T07:32:29;18.70;89.90
5027;DHT22;2532;52.480;13.354;2023-06-14T07:34:56;18.80;89.60
5027;DHT22;2532;52.480;13.354;2023-06-14T07:37:25;18.90;89.10
5027;DHT22;2532;52.480;13.354;2023-06-14T07:39:51;18.90;89.00
5027;DHT22;2532;52.480;13.354;2023-06-14T07:42:18;19.00;88.90
5027;DHT22;2532;52.480;13.354;2023-06-14T07:44:45;19.00;88.80
5027;DHT22;2532;52.480;13.354;2023-06-14T07:47:12;19.10;89.50
5027;DHT22;2532;52.480;13.354;2023-06-14T07:49:39;19.30;89.20
5027;DHT22;2532;52.480;13.354;2023-06-14T07:52:07;19.30;88.90
5027;DHT22;2532;52.480;13.354;2023-06-14T07:54:35;19.40;88.40
5027;DHT22;2532;52.480;13.354;2023-06-14T07:57:03;19.50;88.30
5027;DHT22;2532;52.480;13.354;2023-06-14T07:59:30;19.50;88.30
5027;DHT22;2532;52.480;13.354;2023-06-14T08:01:57;19.60;88.10
5027;DHT22;2532;52.480;13.354;2023-06-14T08:04:24;19.70;87.80
5027;DHT22;2532;52.480;13.354;2023-06-14T08:06:51;19.70;87.00
5027;DHT22;2532;52.480;13.354;2023-06-14T08:09:18;19.80;86.80
5027;DHT22;2532;52.480;13.354;2023-06-14T08:11:47;19.80;86.70
5027;DHT22;2532;52.480;13.354;2023-06-14T08:14:14;19.90;86.50
5027;DHT22;2532;52.480;13.354;2023-06-14T08:16:41;19.90;86.30
5027;DHT22;2532;52.480;13.354;2023-06-14T08:19:08;19.90;86.40
5027;DHT22;2532;52.480;13.354;2023-06-14T08:21:34;19.90;86.40
5027;DHT22;2532;52.480;13.354;2023-06-14T08:24:02;20.00;86.20
5027;DHT22;2532;52.480;13.354;2023-06-14T08:26:30;20.10;86.10
5027;DHT22;2532;52.480;13.354;2023-06-14T08:28:58;20.10;86.00
5027;DHT22;2532;52.480;13.354;2023-06-14T08:31:25;20.10;85.70
5027;DHT22;2532;52.480;13.354;2023-06-14T08:33:53;20.20;85.70
5027;DHT22;2532;52.480;13.354;2023-06-14T08:36:20;20.40;85.00
5027;DHT22;2532;52.480;13.354;2023-06-14T08:38:48;20.50;83.90
5027;DHT22;2532;52.480;13.354;2023-06-14T08:41:20;20.60;84.00
5027;DHT22;2532;52.480;13.354;2023-06-14T08:43:48;20.70;82.70
5027;DHT22;2532;52.480;13.354;2023-06-14T08:46:18;20.80;82.10
5027;DHT22;2532;52.480;13.354;2023-06-14T08:48:48;20.80;80.60
5027;DHT22;2532;52.480;13.354;2023-06-14T08:51:18;20.70;80.50
5027;DHT22;2532;52.480;13.354;2023-06-14T08:53:51;20.70;80.60
5027;DHT22;2532;52.480;13.354;2023-06-14T08:56:19;20.60;79.70
5027;DHT22;2532;52.480;13.354;2023-06-14T08:58:47;20.60;79.90
5027;DHT22;2532;52.480;13.354;2023-06-14T09:01:17;20.60;79.60
5027;DHT22;2532;52.480;13.354;2023-06-14T09:03:44;20.60;79.20
5027;DHT22;2532;52.480;13.354;2023-06-14T09:06:14;20.70;78.60
5027;DHT22;2532;52.480;13.354;2023-06-14T09:08:42;20.80;78.40
5027;DHT22;2532;52.480;13.354;2023-06-14T09:11:11;20.90;78.70
5027;DHT22;2532;52.480;13.354;2023-06-14T09:13:39;20.90;78.60
5027;DHT22;2532;52.480;13.354;2023-06-14T09:16:06;21.00;78.70
5027;DHT22;2532;52.480;13.354;2023-06-14T09:18:36;21.20;78.90
5027;DHT22;2532;52.480;13.354;2023-06-14T09:21:05;21.20;78.40
5027;DHT22;2532;52.480;13.354;2023-06-14T09:23:34;21.40;78.30
5027;DHT22;2532;52.480;13.354;2023-06-14T09:26:07;21.40;78.20
5027;DHT22;2532;52.480;13.354;2023-06-14T09:28:34;21.50;78.30
5027;DHT22;2532;52.480;13.354;2023-06-14T09:31:01;21.50;78.20
5027;DHT22;2532;52.480;13.354;2023-06-14T09:33:28;21.60;78.00
5027;DHT22;2532;52.480;13.354;2023-06-14T09:35:58;21.70;77.50
5027;DHT22;2532;52.480;13.354;2023-06-14T09:38:25;21.60;73.60
5027;DHT22;2532;52.480;13.354;2023-06-14T09:40:57;21.60;73.50
5027;DHT22;2532;52.480;13.354;2023-06-14T09:43:24;21.50;74.00
5027;DHT22;2532;52.480;13.354;2023-06-14T09:45:54;21.60;74.80
5027;DHT22;2532;52.480;13.354;2023-06-14T09:48:21;21.50;74.20
5027;DHT22;2532;52.480;13.354;2023-06-14T09:50:50;21.70;74.40
5027;DHT22;2532;52.480;13.354;2023-06-14T09:53:21;21.70;74.00
5027;DHT22;2532;52.480;13.354;2023-06-14T09:55:49;21.80;74.10
5027;DHT22;2532;52.480;13.354;2023-06-14T09:58:20;21.90;74.00
5027;DHT22;2532;52.480;13.354;2023-06-14T10:00:50;22.00;74.00
5027;DHT22;2532;52.480;13.354;2023-06-14T10:03:21;22.00;73.50
5027;DHT22;2532;52.480;13.354;2023-06-14T10:05:51;22.00;73.40
5027;DHT22;2532;52.480;13.354;2023-06-14T10:08:23;22.00;73.60
5027;DHT22;2532;52.480;13.354;2023-06-14T10:10:51;22.00;73.60
5027;DHT22;2532;52.480;13.354;2023-06-14T10:13:18;22.00;73.50
5027;DHT22;2532;52.480;13.354;2023-06-14T10:15:54;22.10;73.60
5027;DHT22;2532;52.480;13.354;2023-06-14T10:18:31;22.20;73.20
5027;DHT22;2532;52.480;13.354;2023-06-14T10:21:05;22.30;72.30
5027;DHT22;2532;52.480;13.354;2023-06-14T10:23:38;22.30;72.20
5027;DHT22;2532;52.480;13.354;2023-06-14T10:26:08;22.40;71.70
5027;DHT22;2532;52.480;13.354;2023-06-14T10:28:37;22.30;71.40
5027;DHT22;2532;52.480;13.354;2023-06-14T10:31:06;22.40;71.60
5027;DHT22;2532;52.480;13.354;2023-06-14T10:33:33;22.30;71.10
5027;DHT22;2532;52.480;13.354;2023-06-14T10:36:23;22.30;71.00
5027;DHT22;2532;52.480;13.354;2023-06-14T10:39:04;22.30;70.80
5027;DHT22;2532;52.480;13.354;2023-06-14T10:41:34;22.20;71.10
5027;DHT22;2532;52.480;13.354;2023-06-14T10:44:33;22.20;71.00
5027;DHT22;2532;52.480;13.354;2023-06-14T10:47:01;22.20;70.90
5027;DHT22;2532;52.480;13.354;2023-06-14T10:49:42;22.20;71.50
5027;DHT22;2532;52.480;13.354;2023-06-14T10:52:11;22.20;71.60
5027;DHT22;2532;52.480;13.354;2023-06-14T10:55:05;22.10;70.60
5027;DHT22;2532;52.480;13.354;2023-06-14T10:57:35;22.10;70.70
5027;DHT22;2532;52.480;13.354;2023-06-14T11:00:03;22.00;70.90
5027;DHT22;2532;52.480;13.354;2023-06-14T11:02:56;22.00;71.40
5027;DHT22;2532;52.480;13.354;2023-06-14T11:05:48;22.10;70.80
5027;DHT22;2532;52.480;13.354;2023-06-14T11:11:07;22.30;70.70
5027;DHT22;2532;52.480;13.354;2023-06-14T11:13:37;22.40;69.90
5027;DHT22;2532;52.480;13.354;2023-06-14T11:16:10;22.40;69.60
5027;DHT22;2532;52.480;13.354;2023-06-14T11:18:37;22.50;69.10
5027;DHT22;2532;52.480;13.354;2023-06-14T11:21:04;22.60;69.00
5027;DHT22;2532;52.480;13.354;2023-06-14T11:23:31;22.70;68.40
5027;DHT22;2532;52.480;13.354;2023-06-14T11:25:58;22.80;68.10
5027;DHT22;2532;52.480;13.354;2023-06-14T11:28:36;22.80;67.60
5027;DHT22;2532;52.480;13.354;2023-06-14T11:31:03;22.90;66.90
5027;DHT22;2532;52.480;13.354;2023-06-14T11:33:30;23.00;66.30
5027;DHT22;2532;52.480;13.354;2023-06-14T11:35:57;23.00;66.70
5027;DHT22;2532;52.480;13.354;2023-06-14T11:38:25;23.10;66.10
5027;DHT22;2532;52.480;13.354;2023-06-14T11:40:52;23.20;65.20
5027;DHT22;2532;52.480;13.354;2023-06-14T11:43:19;23.30;65.40
5027;DHT22;2532;52.480;13.354;2023-06-14T11:45:49;23.30;64.30
5027;DHT22;2532;52.480;13.354;2023-06-14T11:48:16;23.30;64.70
5027;DHT22;2532;52.480;13.354;2023-06-14T11:50:43;23.40;64.20
5027;DHT22;2532;52.480;13.354;2023-06-14T11:53:10;23.40;63.80
5027;DHT22;2532;52.480;13.354;2023-06-14T11:55:39;23.50;63.90
5027;DHT22;2532;52.480;13.354;2023-06-14T11:58:07;23.50;63.70
5027;DHT22;2532;52.480;13.354;2023-06-14T12:00:35;23.50;63.50
5027;DHT22;2532;52.480;13.354;2023-06-14T12:03:04;23.30;62.60
5027;DHT22;2532;52.480;13.354;2023-06-14T12:05:33;23.30;63.20
5027;DHT22;2532;52.480;13.354;2023-06-14T12:08:02;23.30;63.50
5027;DHT22;2532;52.480;13.354;2023-06-14T12:10:39;23.20;62.90
5027;DHT22;2532;52.480;13.354;2023-06-14T12:13:06;23.30;63.40
5027;DHT22;2532;52.480;13.354;2023-06-14T12:15:33;23.40;63.40
5027;DHT22;2532;52.480;13.354;2023-06-14T12:18:00;23.50;62.30
5027;DHT22;2532;52.480;13.354;2023-06-14T12:20:30;23.60;62.00
5027;DHT22;2532;52.480;13.354;2023-06-14T12:22:58;23.70;61.00
5027;DHT22;2532;52.480;13.354;2023-06-14T12:25:28;23.90;60.90
5027;DHT22;2532;52.480;13.354;2023-06-14T12:27:57;24.10;60.70
5027;DHT22;2532;52.480;13.354;2023-06-14T12:30:24;24.20;59.90
5027;DHT22;2532;52.480;13.354;2023-06-14T12:32:51;24.30;59.30
5027;DHT22;2532;52.480;13.354;2023-06-14T12:35:18;24.40;59.30
5027;DHT22;2532;52.480;13.354;2023-06-14T12:37:46;24.40;58.40
5027;DHT22;2532;52.480;13.354;2023-06-14T12:40:14;24.40;58.20
5027;DHT22;2532;52.480;13.354;2023-06-14T12:42:42;24.40;58.30
5027;DHT22;2532;52.480;13.354;2023-06-14T12:45:09;24.50;58.00
5027;DHT22;2532;52.480;13.354;2023-06-14T12:47:36;24.70;60.80
5027;DHT22;2532;52.480;13.354;2023-06-14T12:50:04;24.90;58.00
5027;DHT22;2532;52.480;13.354;2023-06-14T12:52:31;25.00;57.10
5027;DHT22;2532;52.480;13.354;2023-06-14T12:55:03;25.20;55.90
5027;DHT22;2532;52.480;13.354;2023-06-14T12:57:30;25.30;54.40
5027;DHT22;2532;52.480;13.354;2023-06-14T12:59:57;25.40;54.90
5027;DHT22;2532;52.480;13.354;2023-06-14T13:02:24;25.40;53.60
5027;DHT22;2532;52.480;13.354;2023-06-14T13:04:51;25.40;53.10
5027;DHT22;2532;52.480;13.354;2023-06-14T13:07:18;25.40;52.30
5027;DHT22;2532;52.480;13.354;2023-06-14T13:09:45;25.30;51.00
5027;DHT22;2532;52.480;13.354;2023-06-14T13:12:14;25.10;50.90
5027;DHT22;2532;52.480;13.354;2023-06-14T13:14:41;25.10;51.00
5027;DHT22;2532;52.480;13.354;2023-06-14T13:17:08;25.10;51.20
5027;DHT22;2532;52.480;13.354;2023-06-14T13:19:35;25.20;51.10
5027;DHT22;2532;52.480;13.354;2023-06-14T13:22:03;25.30;50.90
5027;DHT22;2532;52.480;13.354;2023-06-14T13:24:30;25.40;50.10
5027;DHT22;2532;52.480;13.354;2023-06-14T13:26:57;25.40;49.80
5027;DHT22;2532;52.480;13.354;2023-06-14T13:29:26;25.40;50.20
5027;DHT22;2532;52.480;13.354;2023-06-14T13:31:53;25.40;50.10
5027;DHT22;2532;52.480;13.354;2023-06-14T13:34:20;25.40;52.60
5027;DHT22;2532;52.480;13.354;2023-06-14T13:36:49;25.60;50.10
5027;DHT22;2532;52.480;13.354;2023-06-14T13:39:16;25.70;49.50
5027;DHT22;2532;52.480;13.354;2023-06-14T13:41:43;25.80;48.90
5027;DHT22;2532;52.480;13.354;2023-06-14T13:44:10;25.90;49.40
5027;DHT22;2532;52.480;13.354;2023-06-14T13:46:41;26.00;49.40
5027;DHT22;2532;52.480;13.354;2023-06-14T13:49:08;26.20;48.60
5027;DHT22;2532;52.480;13.354;2023-06-14T13:51:36;26.20;47.80
5027;DHT22;2532;52.480;13.354;2023-06-14T13:54:03;26.30;47.70
5027;DHT22;2532;52.480;13.354;2023-06-14T13:56:30;26.40;48.20
5027;DHT22;2532;52.480;13.354;2023-06-14T13:58:57;26.50;46.80
5027;DHT22;2532;52.480;13.354;2023-06-14T14:01:24;26.50;47.50
5027;DHT22;2532;52.480;13.354;2023-06-14T14:03:53;26.60;47.90
5027;DHT22;2532;52.480;13.354;2023-06-14T14:06:20;26.70;47.50
5027;DHT22;2532;52.480;13.354;2023-06-14T14:08:47;26.70;46.60
5027;DHT22;2532;52.480;13.354;2023-06-14T14:11:14;26.70;46.70
5027;DHT22;2532;52.480;13.354;2023-06-14T14:13:41;26.80;47.10
5027;DHT22;2532;52.480;13.354;2023-06-14T14:16:08;26.80;47.80
5027;DHT22;2532;52.480;13.354;2023-06-14T14:18:36;26.80;48.10
5027;DHT22;2532;52.480;13.354;2023-06-14T14:21:04;26.80;48.60
5027;DHT22;2532;52.480;13.354;2023-06-14T14:23:31;26.90;49.40
5027;DHT22;2532;52.480;13.354;2023-06-14T14:25:58;27.00;49.90
5027;DHT22;2532;52.480;13.354;2023-06-14T14:28:26;27.20;48.80
5027;DHT22;2532;52.480;13.354;2023-06-14T14:30:53;27.30;46.50
5027;DHT22;2532;52.480;13.354;2023-06-14T14:33:20;27.30;46.60
5027;DHT22;2532;52.480;13.354;2023-06-14T14:35:47;27.20;47.10
5027;DHT22;2532;52.480;13.354;2023-06-14T14:38:15;27.00;47.20
5027;DHT22;2532;52.480;13.354;2023-06-14T14:40:43;26.90;47.70
5027;DHT22;2532;52.480;13.354;2023-06-14T14:43:10;26.80;48.80
5027;DHT22;2532;52.480;13.354;2023-06-14T14:45:37;26.80;47.00
5027;DHT22;2532;52.480;13.354;2023-06-14T14:48:04;26.70;47.20
5027;DHT22;2532;52.480;13.354;2023-06-14T14:50:32;26.50;47.50
5027;DHT22;2532;52.480;13.354;2023-06-14T14:52:59;26.40;47.50
5027;DHT22;2532;52.480;13.354;2023-06-14T14:55:27;26.30;47.80
5027;DHT22;2532;52.480;13.354;2023-06-14T14:57:54;26.20;47.50
5027;DHT22;2532;52.480;13.354;2023-06-14T15:00:21;25.90;48.50
5027;DHT22;2532;52.480;13.354;2023-06-14T15:02:48;25.70;48.80
5027;DHT22;2532;52.480;13.354;2023-06-14T15:05:15;25.30;49.00
5027;DHT22;2532;52.480;13.354;2023-06-14T15:07:42;25.20;49.60
5027;DHT22;2532;52.480;13.354;2023-06-14T15:10:10;25.00;50.10
5027;DHT22;2532;52.480;13.354;2023-06-14T15:12:38;24.90;50.30
5027;DHT22;2532;52.480;13.354;2023-06-14T15:15:06;24.80;50.40
5027;DHT22;2532;52.480;13.354;2023-06-14T15:17:35;24.70;50.50
5027;DHT22;2532;52.480;13.354;2023-06-14T15:20:02;24.60;50.80
5027;DHT22;2532;52.480;13.354;2023-06-14T15:22:31;24.50;50.90
5027;DHT22;2532;52.480;13.354;2023-06-14T15:24:58;24.40;50.90
5027;DHT22;2532;52.480;13.354;2023-06-14T15:27:25;24.30;50.80
5027;DHT22;2532;52.480;13.354;2023-06-14T15:29:54;24.20;50.60
5027;DHT22;2532;52.480;13.354;2023-06-14T15:32:21;24.10;50.80
5027;DHT22;2532;52.480;13.354;2023-06-14T15:34:48;24.10;51.00
5027;DHT22;2532;52.480;13.354;2023-06-14T15:37:15;24.00;51.00
5027;DHT22;2532;52.480;13.354;2023-06-14T15:39:42;24.00;51.20
5027;DHT22;2532;52.480;13.354;2023-06-14T15:42:09;23.90;51.20
5027;DHT22;2532;52.480;13.354;2023-06-14T15:44:37;24.00;51.20
5027;DHT22;2532;52.480;13.354;2023-06-14T15:47:06;24.00;51.10
5027;DHT22;2532;52.480;13.354;2023-06-14T15:49:33;24.00;51.00
5027;DHT22;2532;52.480;13.354;2023-06-14T15:52:00;24.00;50.70
5027;DHT22;2532;52.480;13.354;2023-06-14T15:54:27;24.10;50.90
5027;DHT22;2532;52.480;13.354;2023-06-14T15:56:54;24.00;50.80
5027;DHT22;2532;52.480;13.354;2023-06-14T15:59:21;24.10;50.90